Time;durP1;ratioP1;P1;durP2;ratioP2;P2;SDS_P1;SDS_P2;PMS_P1;PMS_P2;Temp;Humidity;BMP_temperature;BMP_pressure;BME280_temperature;BME280_humidity;BME280_pressure;Samples;Min_cycle;Max_cycle;Signal;HPM_P1;HPM_P2
2023/11/26 00:01:53;;;;;;;29.90;16.50;;;;;;;-1.31;61.39;98541.63;5034445;28;20372;-60
2023/11/26 00:04:21;;;;;;;31.48;16.17;;;;;;;-1.24;60.95;98547.41;5034506;28;20033;-60
2023/11/26 00:06:47;;;;;;;34.03;17.45;;;;;;;-1.25;61.49;98544.84;5034916;28;20025;-55
2023/11/26 00:09:13;;;;;;;37.25;17.17;;;;;;;-1.25;61.87;98539.59;5044445;28;20025;-57
2023/11/26 00:11:38;;;;;;;33.40;16.17;;;;;;;-1.26;61.49;98530.03;5054449;28;20436;-60
2023/11/26 00:14:04;;;;;;;30.98;16.67;;;;;;;-1.24;61.63;98536.06;5051678;28;20037;-58
2023/11/26 00:16:37;;;;;;;29.70;15.27;;;;;;;-1.13;61.40;98540.72;5054678;28;20037;-61
2023/11/26 00:19:03;;;;;;;31.15;15.93;;;;;;;-1.14;61.19;98537.28;5054117;28;20033;-57
2023/11/26 00:21:29;;;;;;;37.00;18.08;;;;;;;-1.17;61.31;98533.03;5054084;28;20056;-61
2023/11/26 00:23:54;;;;;;;34.50;16.25;;;;;;;-1.20;61.56;98527.09;5054422;28;20072;-60
2023/11/26 00:26:20;;;;;;;32.47;16.33;;;;;;;-1.22;61.87;98524.53;5054539;28;20053;-57
2023/11/26 00:28:46;;;;;;;31.35;15.77;;;;;;;-1.19;62.46;98521.75;5052149;28;20037;-56
2023/11/26 00:31:11;;;;;;;34.85;15.93;;;;;;;-1.47;62.25;98470.72;5053216;28;20041;-59
2023/11/26 00:33:37;;;;;;;31.27;15.85;;;;;;;-1.08;62.08;98522.97;5051759;28;20037;-59
2023/11/26 00:36:03;;;;;;;31.95;15.98;;;;;;;-1.13;62.27;98528.47;5053562;28;20045;-60
2023/11/26 00:38:28;;;;;;;32.63;15.45;;;;;;;-1.12;62.24;98524.03;5053506;28;20483;-61
2023/11/26 00:40:55;;;;;;;30.27;15.48;;;;;;;-1.14;62.37;98526.78;5052901;28;20036;-59
2023/11/26 00:43:20;;;;;;;29.17;15.30;;;;;;;-1.10;61.87;98523.03;5054136;28;20075;-58
2023/11/26 00:45:46;;;;;;;29.52;14.95;;;;;;;-1.08;62.56;98533.47;5053909;28;20063;-62
2023/11/26 00:48:12;;;;;;;31.70;15.25;;;;;;;-1.31;61.81;98483.03;5051931;28;20348;-61
2023/11/26 00:50:37;;;;;;;32.33;16.10;;;;;;;-1.08;61.98;98520.34;5053372;28;20043;-57
2023/11/26 00:53:03;;;;;;;29.65;14.98;;;;;;;-1.27;61.77;98488.94;5047992;28;20104;-60
2023/11/26 00:55:28;;;;;;;29.88;15.13;;;;;;;-1.09;61.90;98530.00;5034074;28;20052;-58
2023/11/26 00:57:54;;;;;;;28.90;14.00;;;;;;;-1.07;61.91;98522.88;5033973;28;20029;-62
2023/11/26 01:00:19;;;;;;;27.15;14.13;;;;;;;-1.10;61.82;98533.56;5033493;28;20064;-54
2023/11/26 01:02:46;;;;;;;30.13;14.43;;;;;;;-1.16;62.22;98532.09;5034768;28;20187;-56
2023/11/26 01:05:12;;;;;;;29.60;15.10;;;;;;;-1.19;62.89;98534.88;5033078;28;20467;-53
2023/11/26 01:07:38;;;;;;;30.45;14.82;;;;;;;-1.18;62.99;98525.25;5033915;28;20503;-57
2023/11/26 01:10:04;;;;;;;32.97;15.45;;;;;;;-1.16;62.94;98533.88;5033599;28;20117;-52
2023/11/26 01:12:30;;;;;;;28.88;15.82;;;;;;;-1.14;62.69;98526.78;5034422;28;20032;-53
2023/11/26 01:14:56;;;;;;;30.90;15.90;;;;;;;-1.01;61.70;98522.53;5034316;28;20088;-57
2023/11/26 01:17:21;;;;;;;34.33;16.40;;;;;;;-1.07;62.20;98525.50;5033819;28;20037;-53
2023/11/26 01:19:47;;;;;;;34.92;17.50;;;;;;;-1.09;61.74;98524.75;5033105;28;20621;-54
2023/11/26 01:22:13;;;;;;;30.98;16.23;;;;;;;-1.18;62.38;98530.50;5033108;28;20033;-59
2023/11/26 01:24:39;;;;;;;33.58;16.02;;;;;;;-1.22;62.38;98540.31;5033173;28;20099;-55
2023/11/26 01:27:05;;;;;;;35.75;16.20;;;;;;;-1.31;63.34;98541.63;5032880;28;20045;-57
2023/11/26 01:29:31;;;;;;;31.83;17.52;;;;;;;-1.31;62.81;98560.00;5035054;28;20041;-58
2023/11/26 01:31:56;;;;;;;33.85;17.13;;;;;;;-1.28;62.99;98561.66;5033090;28;20135;-60
2023/11/26 01:34:22;;;;;;;30.95;16.20;;;;;;;-1.21;62.81;98559.53;5033231;28;20067;-60
2023/11/26 01:36:48;;;;;;;31.75;15.93;;;;;;;-1.20;62.55;98566.50;5033734;28;20110;-59
2023/11/26 01:39:14;;;;;;;38.78;19.48;;;;;;;-1.30;62.92;98569.59;5032894;28;20342;-61
2023/11/26 01:41:40;;;;;;;34.20;18.92;;;;;;;-1.28;63.04;98576.53;5032578;28;20034;-61
2023/11/26 01:44:05;;;;;;;33.60;18.15;;;;;;;-1.31;62.95;98588.91;5032683;28;20367;-61
2023/11/26 01:46:32;;;;;;;37.83;18.30;;;;;;;-1.32;62.86;98576.69;5033036;28;20025;-59
2023/11/26 01:48:58;;;;;;;36.42;18.48;;;;;;;-1.40;63.25;98562.25;5032843;28;20460;-60
2023/11/26 01:51:27;;;;;;;33.72;17.25;;;;;;;-1.39;63.16;98571.84;5033876;28;20048;-61
2023/11/26 01:53:54;;;;;;;35.97;19.50;;;;;;;-1.35;63.27;98576.88;5032576;28;20025;-58
2023/11/26 01:56:21;;;;;;;34.70;18.63;;;;;;;-1.32;62.84;98575.88;5032757;28;20029;-58
2023/11/26 01:58:47;;;;;;;32.70;17.83;;;;;;;-1.34;62.62;98577.69;5039437;28;20051;-52
2023/11/26 02:01:17;;;;;;;34.83;18.60;;;;;;;-1.48;63.66;98579.28;5041486;28;20452;-52
2023/11/26 02:03:43;;;;;;;33.58;18.05;;;;;;;-1.39;63.02;98591.09;5046246;28;20029;-58
2023/11/26 02:06:08;;;;;;;38.63;18.95;;;;;;;-1.46;62.78;98587.06;5052305;28;20460;-52
2023/11/26 02:08:34;;;;;;;36.60;18.80;;;;;;;-1.52;63.27;98579.50;5052190;28;20021;-55
2023/11/26 02:11:00;;;;;;;40.38;18.73;;;;;;;-1.48;63.23;98586.28;5052939;28;20040;-55
2023/11/26 02:13:26;;;;;;;34.95;18.65;;;;;;;-1.40;62.86;98581.50;5052466;28;20029;-53
2023/11/26 02:15:52;;;;;;;32.53;17.20;;;;;;;-1.72;63.05;98542.00;5052223;28;20044;-59
2023/11/26 02:18:19;;;;;;;35.25;17.27;;;;;;;-1.50;62.89;98567.13;5047289;28;20041;-59
2023/11/26 02:20:48;;;;;;;33.83;18.08;;;;;;;-1.45;63.11;98591.38;5045873;28;20033;-58
2023/11/26 02:23:14;;;;;;;37.65;18.23;;;;;;;-1.60;63.66;98578.13;5032381;28;20033;-60
2023/11/26 02:25:39;;;;;;;39.90;18.90;;;;;;;-1.51;63.54;98594.31;5031119;28;20425;-57
2023/11/26 02:28:06;;;;;;;38.88;18.38;;;;;;;-1.47;63.86;98596.72;5038566;28;20043;-60
2023/11/26 02:30:32;;;;;;;35.92;17.63;;;;;;;-1.43;63.82;98593.94;5052452;28;20029;-55
2023/11/26 02:33:01;;;;;;;41.30;18.25;;;;;;;-1.42;63.50;98587.75;5052701;28;20071;-59
2023/11/26 02:35:27;;;;;;;35.20;17.25;;;;;;;-1.38;63.74;98577.03;5051970;28;20029;-60
2023/11/26 02:37:55;;;;;;;37.03;18.27;;;;;;;-1.35;63.39;98591.75;5049824;28;20040;-61
2023/11/26 02:40:22;;;;;;;36.47;17.30;;;;;;;-1.37;63.36;98594.47;5052147;28;20069;-62
2023/11/26 02:42:47;;;;;;;39.50;18.55;;;;;;;-1.56;63.59;98567.47;5052185;28;20029;-60
2023/11/26 02:45:13;;;;;;;37.72;18.90;;;;;;;-1.42;63.89;98591.25;5051659;28;20029;-57
2023/11/26 02:47:39;;;;;;;35.58;17.77;;;;;;;-1.41;63.53;98592.94;5051806;28;20036;-60
2023/11/26 02:50:07;;;;;;;32.35;17.38;;;;;;;-1.35;63.79;98605.75;5052279;28;20068;-58
2023/11/26 02:52:34;;;;;;;35.22;18.58;;;;;;;-1.74;63.78;98551.72;5050362;28;20037;-58
2023/11/26 02:54:59;;;;;;;36.13;16.90;;;;;;;-1.30;62.28;98606.34;5032877;28;20087;-62
2023/11/26 02:57:25;;;;;;;34.30;17.05;;;;;;;-1.43;62.76;98613.19;5032986;28;20037;-62
2023/11/26 02:59:51;;;;;;;30.95;16.23;;;;;;;-1.56;62.91;98606.84;5052195;28;20108;-62
2023/11/26 03:02:18;;;;;;;35.60;17.30;;;;;;;-1.54;63.08;98594.47;5052321;28;20037;-60
2023/11/26 03:04:49;;;;;;;30.33;17.05;;;;;;;-1.71;63.69;98604.03;5052821;28;20378;-58
2023/11/26 03:07:20;;;;;;;39.63;19.13;;;;;;;-1.60;63.07;98614.88;5053985;28;20037;-60
2023/11/26 03:15:15;;;;;;;28.08;14.23;;;;;;;-1.63;62.25;98616.78;5055490;28;20037;-61
2023/11/26 03:17:41;;;;;;;29.00;13.95;;;;;;;-1.75;62.53;98613.88;5055478;28;20032;-59
2023/11/26 03:20:11;;;;;;;28.38;13.43;;;;;;;-1.76;63.02;98609.53;5053487;28;20112;-60
2023/11/26 03:22:39;;;;;;;33.72;14.88;;;;;;;-1.78;62.52;98636.78;5055285;28;20360;-57
2023/11/26 03:25:05;;;;;;;31.55;15.63;;;;;;;-1.89;62.71;98629.41;5055568;28;20420;-59
2023/11/26 03:27:33;;;;;;;30.50;14.65;;;;;;;-1.96;62.84;98623.63;5053535;28;20053;-56
2023/11/26 03:30:00;;;;;;;32.67;14.75;;;;;;;-2.05;63.07;98614.44;5052058;28;20045;-60
2023/11/26 03:32:27;;;;;;;28.20;14.02;;;;;;;-1.96;63.02;98623.63;5055005;28;20044;-59
2023/11/26 03:34:55;;;;;;;32.00;15.25;;;;;;;-1.95;63.22;98617.44;5055361;28;20115;-60
2023/11/26 03:37:22;;;;;;;28.63;14.48;;;;;;;-1.96;63.21;98607.03;5054072;28;20393;-62
2023/11/26 03:39:48;;;;;;;27.10;14.15;;;;;;;-1.93;63.11;98613.00;5054933;28;20442;-59
2023/11/26 03:42:14;;;;;;;29.35;14.77;;;;;;;-2.03;63.58;98596.00;5053545;28;20104;-60
2023/11/26 03:44:40;;;;;;;26.15;14.07;;;;;;;-2.26;63.28;98549.94;5055088;28;20079;-60
2023/11/26 03:47:08;;;;;;;30.40;14.43;;;;;;;-1.93;63.58;98606.91;5054897;28;20048;-57
2023/11/26 03:49:34;;;;;;;29.83;14.60;;;;;;;-1.92;63.23;98603.34;5055232;28;20056;-61
2023/11/26 03:52:00;;;;;;;31.15;14.70;;;;;;;-1.83;62.99;98596.78;5046160;28;20087;-60
2023/11/26 03:54:25;;;;;;;30.73;13.88;;;;;;;-1.81;63.25;98602.81;5034784;28;20033;-59
2023/11/26 03:56:51;;;;;;;30.38;15.50;;;;;;;-1.80;62.67;98599.25;5034697;28;20052;-58
2023/11/26 03:59:17;;;;;;;31.58;14.82;;;;;;;-1.89;63.92;98598.81;5036948;28;20129;-58
2023/11/26 04:01:43;;;;;;;31.02;14.38;;;;;;;-1.82;63.35;98593.25;5050642;28;20132;-59
2023/11/26 04:04:09;;;;;;;27.90;14.82;;;;;;;-1.83;63.42;98592.38;5052908;28;20029;-58
2023/11/26 04:06:35;;;;;;;26.75;14.07;;;;;;;-1.71;63.18;98600.59;5053162;28;20072;-59
2023/11/26 04:09:03;;;;;;;28.35;14.27;;;;;;;-1.69;62.47;98596.94;5053114;28;20060;-60
2023/11/26 04:11:29;;;;;;;27.35;13.57;;;;;;;-1.66;62.44;98604.69;5054277;28;20032;-59
2023/11/26 04:13:54;;;;;;;25.63;13.07;;;;;;;-1.62;62.62;98600.13;5054559;28;20116;-60
2023/11/26 04:16:20;;;;;;;23.63;13.00;;;;;;;-1.81;62.68;98587.94;5054424;28;20444;-61
2023/11/26 04:18:46;;;;;;;24.92;12.18;;;;;;;-1.68;62.30;98619.66;5054628;28;20029;-60
2023/11/26 04:21:12;;;;;;;26.92;13.27;;;;;;;-1.79;62.32;98614.09;5054038;28;20357;-61
2023/11/26 04:23:38;;;;;;;23.67;11.95;;;;;;;-1.81;62.14;98622.03;5052714;28;20036;-58
2023/11/26 04:26:06;;;;;;;23.25;12.18;;;;;;;-1.86;62.69;98618.78;5054833;28;20398;-57
2023/11/26 04:28:32;;;;;;;25.45;12.55;;;;;;;-1.90;62.53;98612.84;5054605;28;20123;-61
2023/11/26 04:30:58;;;;;;;22.15;12.65;;;;;;;-2.05;63.21;98608.34;5053025;28;20456;-59
2023/11/26 04:33:24;;;;;;;23.08;12.38;;;;;;;-2.00;63.28;98627.31;5053994;28;20089;-61
2023/11/26 04:35:50;;;;;;;21.63;11.65;;;;;;;-1.91;63.20;98616.41;5054303;28;20348;-60
2023/11/26 04:38:16;;;;;;;23.73;12.48;;;;;;;-1.78;62.56;98624.50;5052312;28;20031;-57
2023/11/26 04:40:42;;;;;;;22.63;12.43;;;;;;;-1.80;62.81;98617.63;5053576;28;20083;-59
2023/11/26 04:43:07;;;;;;;23.45;11.82;;;;;;;-1.76;62.55;98622.66;5052427;28;20029;-61
2023/11/26 04:45:33;;;;;;;27.15;12.45;;;;;;;-1.75;62.21;98618.25;5054387;28;20047;-59
2023/11/26 04:47:59;;;;;;;27.50;13.38;;;;;;;-1.77;62.35;98620.09;5053698;28;20349;-59
2023/11/26 04:50:24;;;;;;;23.02;12.85;;;;;;;-1.80;62.99;98622.88;5053305;28;20029;-56
2023/11/26 04:52:51;;;;;;;28.10;10.98;;;;;;;-1.75;62.70;98626.97;5053491;28;20025;-59
2023/11/26 04:55:19;;;;;;;24.00;12.05;;;;;;;-1.70;61.96;98624.13;5053881;28;20048;-59
2023/11/26 04:57:48;;;;;;;23.25;11.50;;;;;;;-1.70;62.18;98629.34;5051951;28;20072;-61
2023/11/26 05:00:16;;;;;;;23.95;12.57;;;;;;;-1.76;62.17;98624.41;5053244;28;20028;-56
2023/11/26 05:02:42;;;;;;;21.58;11.70;;;;;;;-1.75;62.06;98623.50;5051548;28;20351;-58
2023/11/26 05:05:09;;;;;;;19.88;11.52;;;;;;;-1.74;61.66;98623.44;5054119;28;20040;-60
2023/11/26 05:07:42;;;;;;;21.73;12.15;;;;;;;-1.81;62.66;98621.19;5053867;28;20025;-58
2023/11/26 05:10:09;;;;;;;24.50;12.60;;;;;;;-1.84;62.18;98618.72;5053069;28;20431;-56
2023/11/26 05:12:35;;;;;;;23.10;12.48;;;;;;;-1.83;62.15;98617.78;5053968;28;20033;-57
2023/11/26 05:15:02;;;;;;;22.27;12.70;;;;;;;-1.76;61.95;98608.69;5053243;28;20048;-59
2023/11/26 05:17:31;;;;;;;20.88;10.98;;;;;;;-1.77;61.60;98613.09;5051521;28;20035;-62
2023/11/26 05:19:57;;;;;;;21.92;12.18;;;;;;;-1.84;62.06;98606.44;5052222;28;20476;-57
2023/11/26 05:22:22;;;;;;;23.08;10.95;;;;;;;-1.80;61.60;98617.63;5051126;28;20029;-60
2023/11/26 05:24:49;;;;;;;24.15;12.95;;;;;;;-1.81;61.62;98610.69;5053319;28;20517;-55
2023/11/26 05:27:14;;;;;;;23.42;11.93;;;;;;;-1.86;62.17;98603.03;5052520;28;20061;-61
2023/11/26 05:29:40;;;;;;;22.35;12.73;;;;;;;-1.89;61.67;98606.69;5053237;28;20052;-59
2023/11/26 05:32:06;;;;;;;25.75;12.38;;;;;;;-1.96;62.16;98597.38;5053501;28;20451;-59
2023/11/26 05:34:31;;;;;;;24.55;12.95;;;;;;;-2.01;62.36;98604.63;5052813;28;20029;-59
2023/11/26 05:36:57;;;;;;;22.75;11.05;;;;;;;-1.87;62.06;98585.59;5053095;28;20041;-57
2023/11/26 05:39:23;;;;;;;25.08;11.90;;;;;;;-1.83;61.64;98597.63;5051386;28;20036;-61
2023/11/26 05:41:48;;;;;;;27.75;12.27;;;;;;;-2.50;61.46;98482.03;5052477;28;20045;-58
2023/11/26 05:44:14;;;;;;;22.52;13.05;;;;;;;-1.96;62.29;98592.13;5050342;28;20116;-59
2023/11/26 05:46:45;;;;;;;23.27;12.73;;;;;;;-1.92;61.96;98590.22;5044308;28;20041;-59
2023/11/26 05:49:12;;;;;;;23.75;12.70;;;;;;;-2.00;62.68;98595.84;5041702;28;20090;-57
2023/11/26 05:51:37;;;;;;;27.15;14.82;;;;;;;-2.05;62.41;98574.25;5041488;28;20444;-59
2023/11/26 05:54:03;;;;;;;26.50;13.40;;;;;;;-1.89;61.97;98582.19;5041439;28;20079;-54
2023/11/26 05:56:29;;;;;;;27.08;13.70;;;;;;;-1.68;61.89;98597.81;5041527;28;20049;-48
2023/11/26 05:58:55;;;;;;;28.35;14.43;;;;;;;-1.79;62.54;98598.34;5040128;28;20035;-46
2023/11/26 06:01:24;;;;;;;30.00;15.57;;;;;;;-1.71;62.28;98604.03;5039374;28;20447;-54
2023/11/26 06:03:51;;;;;;;26.95;14.43;;;;;;;-1.75;61.94;98590.25;5041424;28;20352;-54
2023/11/26 06:06:16;;;;;;;27.67;14.90;;;;;;;-1.83;62.46;98589.75;5042430;28;20105;-60
2023/11/26 06:08:42;;;;;;;28.27;15.75;;;;;;;-1.74;62.56;98591.09;5040990;28;20112;-52
2023/11/26 06:11:08;;;;;;;33.40;17.00;;;;;;;-1.71;62.21;98593.53;5042062;28;20029;-47
2023/11/26 06:13:33;;;;;;;31.92;17.67;;;;;;;-1.68;62.33;98589.94;5040928;28;20090;-60
2023/11/26 06:15:59;;;;;;;32.92;19.13;;;;;;;-1.56;62.13;98591.94;5042743;28;20630;-54
2023/11/26 06:18:25;;;;;;;37.53;18.48;;;;;;;-1.54;62.46;98607.59;5040599;28;20025;-59
2023/11/26 06:20:50;;;;;;;34.10;17.85;;;;;;;-1.54;62.60;98597.97;5041515;28;20037;-56
2023/11/26 06:23:16;;;;;;;30.35;17.92;;;;;;;-1.42;62.02;98593.88;5041157;28;20051;-58
2023/11/26 06:25:43;;;;;;;35.38;18.50;;;;;;;-1.42;61.53;98591.25;5042617;28;20079;-59
2023/11/26 06:28:08;;;;;;;39.95;18.63;;;;;;;-1.39;62.13;98598.09;5041101;28;20033;-59
2023/11/26 06:30:34;;;;;;;31.83;17.33;;;;;;;-1.33;61.22;98585.50;5040910;28;20078;-60
2023/11/26 06:33:01;;;;;;;36.58;19.75;;;;;;;-1.37;61.52;98596.25;5042017;28;20092;-58
2023/11/26 06:35:26;;;;;;;35.78;17.98;;;;;;;-1.41;61.49;98594.72;5031470;28;20021;-58
2023/11/26 06:37:52;;;;;;;36.35;16.52;;;;;;;-1.12;60.57;98589.72;5043464;28;20044;-58
2023/11/26 06:40:18;;;;;;;31.25;18.27;;;;;;;-1.24;61.12;98593.81;5044986;28;20068;-57
2023/11/26 06:42:45;;;;;;;33.55;17.88;;;;;;;-1.26;61.57;98595.69;5046783;28;20100;-56
2023/11/26 06:45:11;;;;;;;34.70;18.67;;;;;;;-1.43;61.92;98576.41;5044487;28;20026;-59
2023/11/26 06:47:38;;;;;;;34.58;18.20;;;;;;;-1.49;61.63;98564.44;5047279;28;20033;-57
2023/11/26 06:50:04;;;;;;;31.75;16.10;;;;;;;-1.11;61.22;98597.53;5044684;28;20029;-61
2023/11/26 06:52:32;;;;;;;34.95;18.33;;;;;;;-1.18;61.10;98586.47;5045940;28;20539;-57
2023/11/26 06:54:58;;;;;;;34.92;18.58;;;;;;;-1.25;61.53;98607.88;5051770;28;20459;-55
2023/11/26 06:57:23;;;;;;;33.50;18.10;;;;;;;-1.18;61.73;98602.25;5042180;28;20029;-55
2023/11/26 06:59:49;;;;;;;33.95;17.75;;;;;;;-1.04;61.03;98605.94;5036103;28;20033;-54
2023/11/26 07:02:15;;;;;;;28.30;14.68;;;;;;;-0.87;60.09;98586.66;5036086;28;20104;-56
2023/11/26 07:04:40;;;;;;;36.45;17.42;;;;;;;-0.97;60.53;98603.81;5036065;28;20131;-58
2023/11/26 07:07:06;;;;;;;35.10;17.27;;;;;;;-1.16;61.38;98602.19;5046858;28;20029;-58
2023/11/26 07:09:32;;;;;;;30.90;16.08;;;;;;;-1.18;61.37;98606.66;5055375;28;20028;-59
2023/11/26 07:11:58;;;;;;;33.33;15.88;;;;;;;-1.09;60.90;98594.78;5048088;28;20138;-58
2023/11/26 07:14:23;;;;;;;27.88;15.85;;;;;;;-0.96;61.03;98589.78;5035611;28;20030;-62
2023/11/26 07:16:52;;;;;;;28.92;13.95;;;;;;;-0.78;60.59;98601.91;5035240;28;20029;-62
2023/11/26 07:19:20;;;;;;;26.27;15.57;;;;;;;-0.67;60.36;98601.31;5035790;28;20030;-57
2023/11/26 07:21:45;;;;;;;29.33;16.25;;;;;;;-0.61;60.20;98597.53;5035042;28;20057;-56
2023/11/26 07:24:11;;;;;;;26.50;15.45;;;;;;;-0.51;59.94;98597.88;5035340;28;20803;-57
2023/11/26 07:26:37;;;;;;;29.85;15.48;;;;;;;-0.40;59.35;98605.19;5035294;28;20128;-53
2023/11/26 07:29:03;;;;;;;27.80;15.10;;;;;;;-0.35;59.41;98613.66;5034995;28;20056;-58
2023/11/26 07:31:29;;;;;;;30.55;16.67;;;;;;;-0.30;59.18;98612.47;5035000;28;20045;-56
2023/11/26 07:33:55;;;;;;;30.25;16.15;;;;;;;-0.23;58.97;98615.63;5035428;28;20428;-57
2023/11/26 07:36:25;;;;;;;34.47;17.58;;;;;;;-0.30;58.95;98622.13;5035732;28;20062;-58
2023/11/26 07:38:52;;;;;;;36.22;18.65;;;;;;;-0.31;59.11;98625.69;5034856;28;20095;-55
2023/11/26 07:41:18;;;;;;;35.85;18.25;;;;;;;-0.45;59.57;98616.81;5035520;28;20029;-55
2023/11/26 07:43:44;;;;;;;37.72;18.83;;;;;;;-0.74;59.65;98571.91;5034965;28;20026;-58
2023/11/26 07:46:12;;;;;;;31.88;17.48;;;;;;;-0.49;59.44;98615.25;5035719;28;20029;-53
2023/11/26 07:48:39;;;;;;;31.85;17.73;;;;;;;-0.47;59.55;98613.41;5034969;28;20124;-54
2023/11/26 07:51:06;;;;;;;30.63;17.25;;;;;;;-0.47;59.70;98615.19;5034254;28;20037;-58
2023/11/26 07:53:32;;;;;;;34.45;16.40;;;;;;;-0.42;59.64;98625.44;5034603;28;20021;-56
2023/11/26 07:56:01;;;;;;;33.05;18.88;;;;;;;-0.46;59.35;98607.22;5034803;28;20029;-56
2023/11/26 07:58:31;;;;;;;31.38;16.75;;;;;;;-0.43;59.61;98614.06;5035985;28;20033;-52
2023/11/26 08:00:58;;;;;;;31.77;17.52;;;;;;;-0.48;60.52;98618.75;5034617;28;20048;-55
2023/11/26 08:03:26;;;;;;;32.88;18.33;;;;;;;-0.34;60.19;98615.34;5035513;28;20030;-55
2023/11/26 08:05:52;;;;;;;30.95;17.55;;;;;;;-0.20;59.20;98618.06;5034471;28;20038;-58
2023/11/26 08:08:23;;;;;;;34.22;18.30;;;;;;;-0.10;58.97;98623.66;5034630;28;20045;-56
2023/11/26 08:10:50;;;;;;;34.38;16.52;;;;;;;-0.06;59.23;98619.94;5033977;28;20040;-56
2023/11/26 08:13:19;;;;;;;30.88;17.33;;;;;;;0.09;58.52;98628.72;5034580;28;20025;-56
2023/11/26 08:15:44;;;;;;;36.85;19.27;;;;;;;0.09;58.63;98631.38;5034918;28;20184;-59
2023/11/26 08:18:10;;;;;;;36.55;19.65;;;;;;;0.04;58.11;98608.88;5035540;28;20100;-57
2023/11/26 08:20:37;;;;;;;36.78;19.83;;;;;;;0.00;58.99;98624.00;5033211;28;20037;-58
2023/11/26 08:23:05;;;;;;;33.88;18.50;;;;;;;0.00;59.42;98618.75;5034199;28;20033;-56
2023/11/26 08:25:33;;;;;;;34.35;18.60;;;;;;;-0.07;58.42;98562.13;5033363;28;20036;-56
2023/11/26 08:28:06;;;;;;;38.03;19.83;;;;;;;0.04;58.81;98603.59;5034556;28;20069;-57
2023/11/26 08:30:39;;;;;;;39.05;20.00;;;;;;;-0.06;58.90;98603.28;5033852;28;20043;-56
2023/11/26 08:33:05;;;;;;;38.35;16.63;;;;;;;0.12;58.27;98604.00;5035070;28;20104;-55
2023/11/26 08:35:34;;;;;;;29.08;14.40;;;;;;;0.05;58.38;98603.53;5034084;28;20049;-56
2023/11/26 08:38:02;;;;;;;38.08;19.48;;;;;;;-0.08;58.57;98610.41;5035244;28;20440;-59
2023/11/26 08:40:34;;;;;;;46.75;19.70;;;;;;;-0.33;59.02;98611.78;5033726;28;20041;-54
2023/11/26 08:43:02;;;;;;;39.47;20.02;;;;;;;-0.40;59.36;98599.91;5033640;28;20041;-56
2023/11/26 08:45:28;;;;;;;39.22;19.45;;;;;;;-0.37;59.77;98594.47;5034839;28;20455;-55
2023/11/26 08:47:55;;;;;;;38.28;20.23;;;;;;;-0.31;59.61;98604.66;5034019;28;20055;-55
2023/11/26 08:50:22;;;;;;;36.45;18.90;;;;;;;-0.24;58.75;98595.50;5033758;28;20030;-57
2023/11/26 08:52:47;;;;;;;36.00;17.65;;;;;;;-0.14;58.98;98593.19;5033918;28;20044;-58
2023/11/26 08:55:13;;;;;;;33.35;17.25;;;;;;;-0.06;58.29;98588.34;5033437;28;20033;-57
2023/11/26 08:57:39;;;;;;;37.65;19.60;;;;;;;-0.16;58.07;98588.03;5034160;28;20034;-57
2023/11/26 09:00:09;;;;;;;36.15;20.10;;;;;;;-0.35;58.67;98582.09;5033378;28;20088;-56
2023/11/26 09:02:40;;;;;;;38.03;18.52;;;;;;;-0.41;58.55;98556.97;5032540;28;20330;-53
2023/11/26 09:05:09;;;;;;;41.13;17.73;;;;;;;-0.36;58.57;98549.69;5033547;28;20083;-56
2023/11/26 09:07:45;;;;;;;38.40;20.40;;;;;;;-0.31;58.66;98575.72;5032320;28;20409;-54
2023/11/26 09:10:16;;;;;;;36.85;18.90;;;;;;;-0.51;59.19;98561.91;5032857;28;20452;-54
2023/11/26 09:12:41;;;;;;;38.08;18.83;;;;;;;-0.40;59.28;98566.56;5037344;28;20124;-59
2023/11/26 09:15:10;;;;;;;37.55;18.20;;;;;;;-0.16;58.15;98569.59;5052576;28;20043;-57
2023/11/26 09:17:35;;;;;;;36.88;19.58;;;;;;;-0.30;58.31;98559.00;5050659;28;20466;-52
2023/11/26 09:20:02;;;;;;;48.97;19.98;;;;;;;-0.22;58.19;98563.84;5052501;28;20123;-55
2023/11/26 09:22:33;;;;;;;41.33;19.65;;;;;;;-0.40;58.74;98571.81;5052608;28;20087;-55
2023/11/26 09:24:58;;;;;;;37.10;19.17;;;;;;;-0.38;58.52;98555.97;5051517;28;20033;-58
2023/11/26 09:27:24;;;;;;;39.10;21.23;;;;;;;-0.45;59.36;98556.31;5051158;28;20041;-55
2023/11/26 09:29:51;;;;;;;40.75;20.45;;;;;;;-0.35;58.43;98553.16;5052596;28;20047;-56
2023/11/26 09:32:17;;;;;;;41.38;20.70;;;;;;;-0.27;58.61;98556.19;5050637;28;20055;-55
2023/11/26 09:34:43;;;;;;;42.05;20.98;;;;;;;-0.39;58.85;98557.72;5032747;28;20107;-58
2023/11/26 09:37:08;;;;;;;40.85;20.42;;;;;;;-0.43;58.68;98540.44;5034146;28;20035;-58
2023/11/26 09:39:35;;;;;;;43.28;20.45;;;;;;;-0.20;58.29;98549.69;5032449;28;20037;-59
2023/11/26 09:42:02;;;;;;;39.20;20.48;;;;;;;-0.27;58.33;98542.22;5035993;28;20033;-58
2023/11/26 09:44:29;;;;;;;46.03;20.75;;;;;;;-0.43;58.96;98550.97;5050940;28;20360;-57
2023/11/26 09:46:55;;;;;;;41.17;21.00;;;;;;;-0.45;59.77;98548.44;5052583;28;20053;-55
2023/11/26 09:49:21;;;;;;;38.42;20.42;;;;;;;-0.36;59.25;98543.59;5052805;28;20025;-58
2023/11/26 09:51:57;;;;;;;37.72;18.95;;;;;;;-0.06;58.55;98534.88;5052885;28;20052;-59
2023/11/26 09:54:26;;;;;;;39.80;20.55;;;;;;;-0.07;58.36;98548.97;5036944;28;20038;-57
2023/11/26 09:56:55;;;;;;;39.70;20.00;;;;;;;-0.03;58.29;98546.06;5033782;28;20117;-60
2023/11/26 09:59:29;;;;;;;37.63;19.08;;;;;;;0.09;57.45;98546.28;5033585;28;20466;-53
2023/11/26 10:01:54;;;;;;;36.97;20.10;;;;;;;-0.10;58.10;98543.88;5032086;28;20033;-59
2023/11/26 10:04:21;;;;;;;40.30;18.83;;;;;;;-0.22;58.33;98545.44;5032890;28;20033;-58
2023/11/26 10:06:54;;;;;;;37.65;20.88;;;;;;;-0.16;58.29;98545.94;5032359;28;20083;-57
2023/11/26 10:09:21;;;;;;;45.60;22.38;;;;;;;-0.23;58.75;98551.63;5032507;28;20048;-57
2023/11/26 10:11:48;;;;;;;45.88;22.48;;;;;;;-0.30;59.03;98559.88;5035805;28;20032;-60
2023/11/26 10:14:18;;;;;;;44.58;22.35;;;;;;;-0.26;59.10;98554.44;5039985;28;20029;-56
2023/11/26 10:16:44;;;;;;;50.30;22.73;;;;;;;-0.47;59.44;98515.25;5052309;28;20029;-57
2023/11/26 10:19:23;;;;;;;42.95;21.40;;;;;;;-0.04;58.96;98554.03;5050414;28;20065;-58
2023/11/26 10:21:57;;;;;;;42.08;20.77;;;;;;;0.03;58.64;98551.91;5052306;28;20052;-56
2023/11/26 10:24:27;;;;;;;43.28;20.35;;;;;;;0.13;58.23;98542.56;5053025;28;20037;-56
2023/11/26 10:26:54;;;;;;;35.53;19.27;;;;;;;-0.07;57.95;98505.09;5052199;28;20055;-59
2023/11/26 10:29:28;;;;;;;36.83;20.05;;;;;;;0.23;57.88;98537.56;5051752;28;20037;-58
2023/11/26 10:32:03;;;;;;;40.17;20.92;;;;;;;0.31;58.27;98532.72;5052533;28;20063;-58
2023/11/26 10:34:32;;;;;;;40.13;20.83;;;;;;;0.14;57.54;98526.66;5025669;28;20256;-60
2023/11/26 10:36:57;;;;;;;37.25;19.35;;;;;;;0.23;57.54;98508.63;5032159;28;20056;-55
2023/11/26 10:39:24;;;;;;;38.60;19.98;;;;;;;-0.11;58.15;98481.66;5038847;28;20051;-56
2023/11/26 10:41:50;;;;;;;38.55;17.45;;;;;;;0.12;57.61;98512.75;5052428;28;20037;-58
2023/11/26 10:44:17;;;;;;;39.08;20.33;;;;;;;0.05;57.61;98513.19;5052223;28;20095;-57
2023/11/26 10:46:48;;;;;;;38.30;19.27;;;;;;;-0.04;58.22;98515.44;5052080;28;20037;-57
2023/11/26 10:49:34;;;;;;;35.67;18.75;;;;;;;0.00;58.00;98502.97;5051964;28;20032;-60
2023/11/26 10:52:38;;;;;;;33.03;18.50;;;;;;;-0.16;58.72;98502.97;5052536;28;20040;-57
2023/11/26 10:55:29;;;;;;;35.03;18.40;;;;;;;-0.13;57.86;98468.59;5041467;28;20538;-60
2023/11/26 10:58:02;;;;;;;37.50;19.55;;;;;;;-0.12;57.82;98506.28;5032143;28;20399;-60
2023/11/26 11:00:32;;;;;;;27.50;14.50;;;;;;;-0.11;57.58;98495.69;5047103;28;20033;-52
2023/11/26 11:03:02;;;;;;;32.40;17.17;;;;;;;-0.24;58.09;98499.94;5052023;28;20090;-58
2023/11/26 11:05:29;;;;;;;37.38;18.92;;;;;;;-0.47;58.86;98497.72;5052059;28;20069;-56
2023/11/26 11:07:57;;;;;;;26.00;12.90;;;;;;;-0.22;58.04;98492.81;5052366;28;20033;-55
2023/11/26 11:10:41;;;;;;;33.17;17.17;;;;;;;-0.28;58.92;98493.19;5048606;28;20704;-51
2023/11/26 11:13:16;;;;;;;37.90;19.65;;;;;;;-0.40;58.23;98485.03;5050575;28;20033;-58
2023/11/26 11:15:45;;;;;;;30.80;17.65;;;;;;;-0.30;57.90;98480.09;5051707;28;20143;-57
2023/11/26 11:18:37;;;;;;;36.47;15.82;;;;;;;-0.34;58.45;98476.81;5051125;28;20073;-56
2023/11/26 11:21:12;;;;;;;32.92;16.27;;;;;;;-0.27;57.22;98473.81;5031183;28;20093;-56
2023/11/26 11:23:44;;;;;;;;;;;;;;;-0.33;57.30;98465.38;5041049;28;20064;-56